Time;durP1;ratioP1;P1;durP2;ratioP2;P2;SDS_P1;SDS_P2;PMS_P1;PMS_P2;Temp;Humidity;BMP_temperature;BMP_pressure;BME280_temperature;BME280_humidity;BME280_pressure;Samples;Min_cycle;Max_cycle;Signal;HPM_P1;HPM_P2
2022/10/06 00:01:01;;;;;;;;;2.00;2.00;;;;;;;;5057984;28;45242;-78
2022/10/06 00:03:27;;;;;;;;;2.67;0.67;;;;;;;;5057990;28;45293;-78
2022/10/06 00:05:57;;;;;;;;;4.00;1.00;;;;;;;;5057304;28;45399;-79
2022/10/06 00:08:22;;;;;;;;;4.00;1.00;;;;;;;;5057158;28;45166;-78
2022/10/06 00:10:47;;;;;;;;;5.33;0.00;;;;;;;;5056517;28;46083;-78
2022/10/06 00:13:13;;;;;;;;;4.67;1.00;;;;;;;;5058012;28;45196;-78
2022/10/06 00:15:38;;;;;;;;;3.00;2.00;;;;;;;;5058590;28;45426;-78
2022/10/06 00:18:03;;;;;;;;;1.33;1.00;;;;;;;;5061422;28;45391;-78
2022/10/06 00:20:28;;;;;;;;;1.00;1.00;;;;;;;;5092212;27;47103;-78
2022/10/06 00:22:55;;;;;;;;;2.00;1.67;;;;;;;;5061105;28;45240;-78
2022/10/06 00:25:22;;;;;;;;;3.00;1.00;;;;;;;;5060759;28;45461;-79
2022/10/06 00:27:48;;;;;;;;;6.33;2.00;;;;;;;;5060543;28;45456;-78
2022/10/06 00:30:22;;;;;;;;;2.67;1.00;;;;;;;;5060436;28;45054;-78
2022/10/06 00:33:01;;;;;;;;;3.67;1.00;;;;;;;;5060798;28;45395;-78
2022/10/06 00:35:27;;;;;;;;;1.00;1.00;;;;;;;;5060279;28;45578;-78
2022/10/06 00:37:53;;;;;;;;;3.00;2.00;;;;;;;;5060745;28;45206;-78
2022/10/06 00:40:18;;;;;;;;;3.33;1.00;;;;;;;;5058925;28;47634;-78
2022/10/06 00:43:10;;;;;;;;;2.00;1.00;;;;;;;;5060207;28;45277;-78
2022/10/06 00:45:41;;;;;;;;;2.67;2.00;;;;;;;;5057163;28;45552;-79
2022/10/06 00:48:10;;;;;;;;;6.67;2.00;;;;;;;;5058551;28;46151;-78
2022/10/06 00:50:36;;;;;;;;;4.33;1.00;;;;;;;;5060192;28;46272;-78
2022/10/06 00:53:03;;;;;;;;;0.33;0.33;;;;;;;;5060617;28;45226;-78
2022/10/06 00:55:29;;;;;;;;;2.67;1.00;;;;;;;;5059838;28;45375;-79
2022/10/06 00:57:55;;;;;;;;;3.00;1.00;;;;;;;;5060122;28;45590;-78
2022/10/06 01:00:20;;;;;;;;;5.00;1.67;;;;;;;;5058202;28;47800;-78
2022/10/06 01:02:48;;;;;;;;;4.00;1.00;;;;;;;;5060651;28;45225;-78
2022/10/06 01:05:17;;;;;;;;;3.00;1.00;;;;;;;;5060112;28;45442;-78
2022/10/06 01:07:42;;;;;;;;;4.67;0.00;;;;;;;;5059000;28;46026;-78
2022/10/06 01:10:08;;;;;;;;;1.33;0.67;;;;;;;;5059689;28;46456;-79
2022/10/06 01:12:33;;;;;;;;;1.67;1.67;;;;;;;;5060520;28;45205;-78
2022/10/06 01:14:59;;;;;;;;;2.33;1.00;;;;;;;;5060021;28;45335;-78
2022/10/06 01:17:28;;;;;;;;;2.67;1.00;;;;;;;;5060329;28;45716;-78
2022/10/06 01:20:07;;;;;;;;;1.00;1.00;;;;;;;;5059843;28;46251;-78
2022/10/06 01:22:42;;;;;;;;;2.33;1.67;;;;;;;;5060358;28;45308;-78
2022/10/06 01:25:08;;;;;;;;;1.00;1.00;;;;;;;;5059593;28;45283;-79
2022/10/06 01:27:34;;;;;;;;;3.00;1.00;;;;;;;;5058637;28;45600;-78
2022/10/06 01:30:00;;;;;;;;;3.00;1.67;;;;;;;;5060016;28;46219;-78
2022/10/06 01:32:26;;;;;;;;;4.33;1.33;;;;;;;;5059869;28;45360;-78
2022/10/06 01:34:51;;;;;;;;;6.00;1.00;;;;;;;;5059691;28;44902;-78
2022/10/06 01:37:16;;;;;;;;;3.00;1.67;;;;;;;;5059852;28;45318;-78
2022/10/06 01:39:42;;;;;;;;;3.00;1.33;;;;;;;;5059241;28;45517;-78
2022/10/06 01:42:08;;;;;;;;;3.00;1.00;;;;;;;;5059227;28;45295;-78
2022/10/06 01:44:33;;;;;;;;;3.00;1.00;;;;;;;;5059549;28;46003;-78
2022/10/06 01:46:58;;;;;;;;;1.00;1.00;;;;;;;;5060228;28;45180;-78
2022/10/06 01:49:23;;;;;;;;;1.67;1.67;;;;;;;;5059973;28;45449;-78
2022/10/06 01:51:49;;;;;;;;;4.00;2.00;;;;;;;;5060050;28;45243;-78
2022/10/06 01:54:14;;;;;;;;;3.67;2.67;;;;;;;;5058139;28;45430;-79
2022/10/06 01:56:39;;;;;;;;;5.00;1.00;;;;;;;;5059294;28;45375;-78
2022/10/06 01:59:04;;;;;;;;;3.67;1.00;;;;;;;;5057016;28;47375;-78
2022/10/06 02:01:30;;;;;;;;;5.67;2.00;;;;;;;;5059670;28;44645;-79
2022/10/06 02:03:55;;;;;;;;;3.67;3.67;;;;;;;;5058716;28;45216;-78
2022/10/06 02:06:20;;;;;;;;;2.67;0.33;;;;;;;;5057348;28;45917;-78
2022/10/06 02:08:45;;;;;;;;;2.33;1.00;;;;;;;;5058889;28;45457;-78
2022/10/06 02:11:11;;;;;;;;;3.00;2.00;;;;;;;;5056720;28;45324;-78
2022/10/06 02:13:36;;;;;;;;;3.00;1.33;;;;;;;;5059014;28;45219;-78
2022/10/06 02:16:05;;;;;;;;;6.00;1.67;;;;;;;;5057373;28;46159;-78
2022/10/06 02:18:30;;;;;;;;;4.00;2.33;;;;;;;;5059131;28;48028;-79
2022/10/06 02:20:55;;;;;;;;;2.00;2.00;;;;;;;;5058705;28;45540;-78
2022/10/06 02:23:20;;;;;;;;;4.00;1.00;;;;;;;;5059465;28;45359;-79
2022/10/06 02:25:46;;;;;;;;;2.67;1.00;;;;;;;;5058906;28;45459;-79
2022/10/06 02:28:11;;;;;;;;;1.00;1.00;;;;;;;;5057629;28;46172;-78
2022/10/06 02:30:36;;;;;;;;;2.00;2.00;;;;;;;;5058702;28;45358;-78
2022/10/06 02:33:01;;;;;;;;;5.00;2.00;;;;;;;;5059255;28;45482;-79
2022/10/06 02:35:27;;;;;;;;;1.00;1.00;;;;;;;;5058409;28;45461;-78
2022/10/06 02:37:52;;;;;;;;;1.67;1.67;;;;;;;;5057552;28;47516;-78
2022/10/06 02:40:17;;;;;;;;;6.33;2.00;;;;;;;;5058389;28;45474;-78
2022/10/06 02:42:43;;;;;;;;;2.00;2.00;;;;;;;;5058642;28;45423;-78
2022/10/06 02:45:08;;;;;;;;;0.33;0.33;;;;;;;;5058358;28;45541;-79
2022/10/06 02:47:34;;;;;;;;;2.00;1.00;;;;;;;;5058770;28;46173;-79
2022/10/06 02:50:00;;;;;;;;;2.00;1.00;;;;;;;;5057018;28;45441;-78
2022/10/06 02:52:29;;;;;;;;;2.00;1.00;;;;;;;;5058476;28;45367;-78
2022/10/06 02:54:54;;;;;;;;;1.67;1.00;;;;;;;;5058203;28;45407;-79
2022/10/06 02:57:20;;;;;;;;;1.67;1.67;;;;;;;;5057931;28;45607;-78
2022/10/06 02:59:45;;;;;;;;;6.00;2.00;;;;;;;;5058380;28;45212;-78
2022/10/06 03:02:10;;;;;;;;;4.00;1.00;;;;;;;;5058867;28;45385;-78
2022/10/06 03:04:35;;;;;;;;;2.00;1.00;;;;;;;;5058704;28;45381;-78
2022/10/06 03:07:01;;;;;;;;;3.33;1.00;;;;;;;;5057978;28;45533;-79
2022/10/06 03:09:26;;;;;;;;;2.00;2.00;;;;;;;;5058582;28;45379;-78
2022/10/06 03:11:51;;;;;;;;;2.33;1.00;;;;;;;;5057819;28;45362;-78
2022/10/06 03:14:16;;;;;;;;;3.00;2.67;;;;;;;;5058435;28;45525;-78
2022/10/06 03:16:42;;;;;;;;;3.67;2.00;;;;;;;;5056291;28;46965;-78
2022/10/06 03:19:08;;;;;;;;;3.67;1.00;;;;;;;;5058236;28;45273;-78
2022/10/06 03:21:34;;;;;;;;;5.00;1.00;;;;;;;;5056615;28;45548;-78
2022/10/06 03:24:00;;;;;;;;;8.00;1.67;;;;;;;;5058310;28;45395;-78
2022/10/06 03:26:26;;;;;;;;;1.33;1.00;;;;;;;;5057209;28;45501;-78
2022/10/06 03:28:53;;;;;;;;;1.00;1.00;;;;;;;;5058526;28;45437;-78
2022/10/06 03:31:18;;;;;;;;;2.00;0.67;;;;;;;;5055767;28;45249;-79
2022/10/06 03:33:43;;;;;;;;;2.00;0.33;;;;;;;;5057846;28;45276;-78
2022/10/06 03:36:13;;;;;;;;;3.00;2.33;;;;;;;;5057337;28;45380;-78
2022/10/06 03:38:39;;;;;;;;;4.00;2.67;;;;;;;;5058452;28;45470;-78
2022/10/06 03:41:05;;;;;;;;;2.33;1.00;;;;;;;;5057198;28;45362;-78
2022/10/06 03:43:30;;;;;;;;;3.67;1.67;;;;;;;;5056787;28;46097;-78
2022/10/06 03:45:56;;;;;;;;;5.67;1.00;;;;;;;;5057191;28;45385;-78
2022/10/06 03:48:21;;;;;;;;;3.33;1.00;;;;;;;;5057901;28;45417;-77
2022/10/06 03:50:54;;;;;;;;;3.67;0.67;;;;;;;;5058942;28;45265;-78
2022/10/06 03:53:24;;;;;;;;;4.00;1.33;;;;;;;;5061790;28;45324;-78
2022/10/06 03:55:49;;;;;;;;;6.00;1.00;;;;;;;;5060437;28;45388;-78
2022/10/06 03:58:15;;;;;;;;;5.00;2.00;;;;;;;;5061370;28;45297;-78
2022/10/06 04:00:40;;;;;;;;;3.00;2.00;;;;;;;;5061065;28;45489;-78
2022/10/06 04:03:06;;;;;;;;;4.33;3.00;;;;;;;;5061328;28;46062;-78
2022/10/06 04:05:31;;;;;;;;;2.00;2.00;;;;;;;;5060726;28;45510;-78
2022/10/06 04:07:56;;;;;;;;;3.00;2.00;;;;;;;;5061353;28;45489;-78
2022/10/06 04:10:22;;;;;;;;;2.00;1.00;;;;;;;;5060967;28;45599;-78
2022/10/06 04:12:47;;;;;;;;;4.33;1.00;;;;;;;;5060885;28;45395;-78
2022/10/06 04:15:12;;;;;;;;;1.67;1.67;;;;;;;;5060621;28;45477;-78
2022/10/06 04:17:37;;;;;;;;;3.33;2.00;;;;;;;;5061418;28;45371;-78
2022/10/06 04:20:03;;;;;;;;;5.33;2.00;;;;;;;;5061008;28;45667;-78
2022/10/06 04:22:28;;;;;;;;;4.00;1.00;;;;;;;;5061027;28;45462;-79
2022/10/06 04:24:53;;;;;;;;;4.33;0.33;;;;;;;;5059161;28;46812;-78
2022/10/06 04:27:27;;;;;;;;;2.67;2.00;;;;;;;;5060708;28;45430;-79
2022/10/06 04:29:53;;;;;;;;;5.00;2.67;;;;;;;;5059428;28;45352;-79
2022/10/06 04:32:18;;;;;;;;;4.00;2.00;;;;;;;;5060734;28;45325;-78
2022/10/06 04:34:43;;;;;;;;;1.00;1.00;;;;;;;;5060413;28;46033;-78
2022/10/06 04:37:09;;;;;;;;;2.33;1.00;;;;;;;;5060753;28;45413;-78
2022/10/06 04:39:36;;;;;;;;;6.00;1.00;;;;;;;;5061129;28;45485;-78
2022/10/06 04:42:02;;;;;;;;;4.33;3.33;;;;;;;;5059885;28;45428;-79
2022/10/06 04:44:27;;;;;;;;;5.00;1.00;;;;;;;;5059368;28;45334;-78
2022/10/06 04:46:52;;;;;;;;;4.00;2.33;;;;;;;;5060278;28;45508;-79
2022/10/06 04:49:18;;;;;;;;;5.00;2.00;;;;;;;;5060998;28;45253;-79
2022/10/06 04:51:43;;;;;;;;;3.50;2.00;;;;;;;;5060233;28;45474;-78
2022/10/06 04:54:09;;;;;;;;;4.33;3.67;;;;;;;;5060477;28;46085;-78
2022/10/06 04:56:34;;;;;;;;;4.00;3.00;;;;;;;;5059782;28;45515;-79
2022/10/06 04:58:59;;;;;;;;;3.75;3.00;;;;;;;;5060518;28;45316;-79
2022/10/06 05:01:26;;;;;;;;;3.75;3.00;;;;;;;;5058499;28;46529;-78
2022/10/06 05:03:53;;;;;;;;;4.00;2.00;;;;;;;;5059200;28;47533;-78
2022/10/06 05:06:19;;;;;;;;;7.25;3.00;;;;;;;;5058859;28;45459;-78
2022/10/06 05:08:49;;;;;;;;;6.00;3.00;;;;;;;;5060633;28;45441;-77
2022/10/06 05:11:14;;;;;;;;;4.75;3.00;;;;;;;;5059503;28;45280;-79
2022/10/06 05:13:40;;;;;;;;;5.50;3.75;;;;;;;;5058740;28;45361;-78
2022/10/06 05:16:06;;;;;;;;;4.25;3.00;;;;;;;;5059086;28;45290;-79
2022/10/06 05:18:32;;;;;;;;;7.25;3.25;;;;;;;;5060163;28;45340;-79
2022/10/06 05:20:59;;;;;;;;;7.25;4.00;;;;;;;;5059523;28;45473;-78
2022/10/06 05:23:25;;;;;;;;;6.25;3.00;;;;;;;;5059970;28;45495;-79
2022/10/06 05:25:55;;;;;;;;;6.25;2.00;;;;;;;;5059011;28;45434;-78
2022/10/06 05:28:20;;;;;;;;;5.50;1.50;;;;;;;;5059853;28;45377;-79
2022/10/06 05:30:58;;;;;;;;;2.75;2.75;;;;;;;;5059491;28;45292;-78
2022/10/06 05:33:24;;;;;;;;;5.25;2.25;;;;;;;;5059580;28;46930;-78
2022/10/06 05:35:50;;;;;;;;;4.50;2.00;;;;;;;;5057682;28;45442;-79
2022/10/06 05:38:15;;;;;;;;;3.00;3.00;;;;;;;;5059941;28;45333;-79
2022/10/06 05:40:40;;;;;;;;;5.75;4.00;;;;;;;;5057073;28;45850;-79
2022/10/06 05:43:06;;;;;;;;;8.50;4.50;;;;;;;;5059406;28;45235;-79
2022/10/06 05:45:31;;;;;;;;;4.75;3.00;;;;;;;;5059221;28;45597;-79
2022/10/06 05:47:56;;;;;;;;;6.50;4.00;;;;;;;;5060014;28;45283;-79
2022/10/06 05:50:22;;;;;;;;;6.00;3.00;;;;;;;;5059268;28;45319;-79
2022/10/06 05:52:47;;;;;;;;;8.50;3.25;;;;;;;;5092425;27;47134;-79
2022/10/06 05:55:12;;;;;;;;;6.75;4.75;;;;;;;;5059137;28;45446;-78
2022/10/06 05:57:38;;;;;;;;;3.00;1.00;;;;;;;;5059063;28;45271;-77
2022/10/06 06:00:03;;;;;;;;;5.00;3.00;;;;;;;;5056568;28;45333;-77
2022/10/06 06:02:29;;;;;;;;;4.00;1.75;;;;;;;;5059612;28;45476;-77
2022/10/06 06:04:54;;;;;;;;;5.00;2.25;;;;;;;;5059269;28;45239;-77
2022/10/06 06:07:19;;;;;;;;;4.75;2.00;;;;;;;;5059665;28;45541;-78
2022/10/06 06:09:45;;;;;;;;;7.75;3.00;;;;;;;;5059270;28;45291;-78
2022/10/06 06:12:10;;;;;;;;;4.00;4.00;;;;;;;;5058731;28;45476;-77
2022/10/06 06:17:19;;;;;;;;;2.75;2.75;;;;;;;;5060486;28;45400;-77
2022/10/06 06:19:44;;;;;;;;;5.00;3.00;;;;;;;;5059319;28;45332;-76
2022/10/06 06:22:10;;;;;;;;;4.75;3.00;;;;;;;;5058914;28;45420;-78
2022/10/06 06:24:35;;;;;;;;;5.00;3.25;;;;;;;;5051867;28;45481;-77
2022/10/06 06:27:00;;;;;;;;;5.00;2.75;;;;;;;;5058449;28;45433;-77
2022/10/06 06:29:25;;;;;;;;;5.25;3.00;;;;;;;;5053567;28;45416;-76
2022/10/06 06:31:50;;;;;;;;;7.50;4.75;;;;;;;;5055488;28;46077;-77
2022/10/06 06:34:16;;;;;;;;;4.00;2.00;;;;;;;;5050364;28;45281;-77
2022/10/06 06:36:43;;;;;;;;;3.25;2.00;;;;;;;;5055894;28;45429;-77
2022/10/06 06:39:10;;;;;;;;;6.75;4.00;;;;;;;;5058089;28;45522;-77
2022/10/06 06:41:36;;;;;;;;;6.00;4.00;;;;;;;;5053803;28;45131;-78
2022/10/06 06:44:02;;;;;;;;;7.25;3.75;;;;;;;;5048363;28;45241;-77
2022/10/06 06:46:30;;;;;;;;;7.00;4.50;;;;;;;;5054237;28;45419;-76
2022/10/06 06:48:57;;;;;;;;;8.00;4.50;;;;;;;;5050428;28;45383;-78
2022/10/06 06:51:23;;;;;;;;;12.25;7.50;;;;;;;;5056153;28;45429;-77
2022/10/06 06:53:51;;;;;;;;;9.00;6.25;;;;;;;;5050094;28;45394;-77
2022/10/06 06:56:17;;;;;;;;;10.00;6.00;;;;;;;;5056923;28;45523;-77
2022/10/06 06:58:46;;;;;;;;;9.00;6.50;;;;;;;;5047461;28;45301;-77
2022/10/06 07:01:12;;;;;;;;;11.25;7.00;;;;;;;;5056416;28;46630;-75
2022/10/06 07:03:39;;;;;;;;;9.75;4.25;;;;;;;;5057816;28;45510;-77
2022/10/06 07:06:07;;;;;;;;;6.50;4.00;;;;;;;;5057926;28;45320;-77
2022/10/06 07:08:33;;;;;;;;;4.50;3.00;;;;;;;;5055654;28;45457;-78
2022/10/06 07:10:58;;;;;;;;;5.25;4.00;;;;;;;;5089263;27;46499;-77
2022/10/06 07:13:23;;;;;;;;;3.75;3.75;;;;;;;;5043535;28;45531;-78
2022/10/06 07:26:44;;;;;;;;;4.00;3.50;;;;;;;;5054912;28;45281;-76
2022/10/06 07:29:10;;;;;;;;;4.75;4.25;;;;;;;;5052304;28;45271;-77
2022/10/06 07:31:36;;;;;;;;;6.50;4.50;;;;;;;;5056615;28;46080;-77
2022/10/06 07:34:06;;;;;;;;;5.25;4.00;;;;;;;;5057602;28;44592;-78
2022/10/06 07:36:32;;;;;;;;;4.33;1.33;;;;;;;;5053318;28;45534;-77
2022/10/06 07:38:57;;;;;;;;;4.50;4.50;;;;;;;;5052376;28;45485;-76
2022/10/06 07:41:23;;;;;;;;;8.25;5.25;;;;;;;;5053940;28;46444;-77
2022/10/06 07:43:48;;;;;;;;;3.67;3.67;;;;;;;;5046005;28;45469;-76
2022/10/06 07:46:14;;;;;;;;;4.75;4.00;;;;;;;;5054814;28;45371;-76
2022/10/06 07:48:39;;;;;;;;;8.33;4.33;;;;;;;;5046729;28;45387;-75
2022/10/06 07:51:11;;;;;;;;;4.00;1.33;;;;;;;;5056036;28;46253;-78
2022/10/06 07:53:37;;;;;;;;;6.75;4.00;;;;;;;;5056719;28;45466;-76
2022/10/06 07:56:04;;;;;;;;;4.75;2.25;;;;;;;;5055875;28;45461;-76
2022/10/06 07:58:29;;;;;;;;;3.33;2.67;;;;;;;;5050241;28;45522;-79
2022/10/06 08:00:54;;;;;;;;;5.67;2.67;;;;;;;;5057460;28;46005;-78
2022/10/06 08:03:20;;;;;;;;;3.67;3.00;;;;;;;;5054508;28;45350;-78
2022/10/06 08:05:49;;;;;;;;;5.00;3.00;;;;;;;;5052960;28;45371;-76
2022/10/06 08:08:15;;;;;;;;;2.67;2.67;;;;;;;;5049834;28;45420;-79
2022/10/06 08:10:40;;;;;;;;;3.33;2.00;;;;;;;;5044335;28;46140;-77
2022/10/06 08:13:06;;;;;;;;;3.00;2.33;;;;;;;;5055141;28;45462;-79
2022/10/06 08:15:32;;;;;;;;;3.33;3.33;;;;;;;;5045084;28;45365;-77
2022/10/06 08:18:00;;;;;;;;;3.00;2.00;;;;;;;;5052508;28;45308;-76
2022/10/06 08:20:26;;;;;;;;;7.67;4.00;;;;;;;;5052812;28;45402;-74
2022/10/06 08:22:51;;;;;;;;;4.67;4.67;;;;;;;;5056147;28;45554;-76
2022/10/06 08:25:16;;;;;;;;;6.67;3.00;;;;;;;;5054756;28;45478;-72
2022/10/06 08:27:43;;;;;;;;;2.33;2.33;;;;;;;;5054446;28;46223;-75
2022/10/06 08:30:09;;;;;;;;;5.33;4.00;;;;;;;;5055230;28;45514;-75
2022/10/06 08:32:34;;;;;;;;;12.00;4.67;;;;;;;;5055503;28;45330;-77
2022/10/06 08:35:00;;;;;;;;;6.00;2.33;;;;;;;;5053334;28;45188;-77
2022/10/06 08:37:26;;;;;;;;;3.00;1.33;;;;;;;;5046545;28;45367;-80
2022/10/06 08:39:51;;;;;;;;;2.00;2.00;;;;;;;;5047604;28;45466;-80
2022/10/06 08:42:23;;;;;;;;;4.00;2.00;;;;;;;;5053892;28;45529;-77
2022/10/06 08:44:55;;;;;;;;;5.00;2.00;;;;;;;;5048772;28;45224;-80
2022/10/06 08:47:21;;;;;;;;;3.67;3.33;;;;;;;;5054171;28;45299;-80
2022/10/06 08:49:47;;;;;;;;;2.33;2.00;;;;;;;;5051599;28;45308;-80
2022/10/06 08:52:31;;;;;;;;;4.33;2.00;;;;;;;;5060810;28;45226;-80
2022/10/06 08:55:05;;;;;;;;;5.67;3.00;;;;;;;;5058641;28;45537;-79
2022/10/06 08:57:49;;;;;;;;;6.67;3.00;;;;;;;;5055251;28;45432;-79
2022/10/06 09:00:16;;;;;;;;;2.33;2.33;;;;;;;;5057883;28;46275;-79
2022/10/06 09:02:46;;;;;;;;;6.00;3.00;;;;;;;;5058535;28;45441;-79
2022/10/06 09:05:12;;;;;;;;;5.67;1.00;;;;;;;;5056973;28;45361;-79
2022/10/06 09:07:44;;;;;;;;;3.67;2.67;;;;;;;;5055060;28;47016;-79
2022/10/06 09:10:28;;;;;;;;;3.67;3.00;;;;;;;;5059837;28;46311;-77
2022/10/06 09:13:03;;;;;;;;;3.00;2.00;;;;;;;;5056804;28;45219;-77
2022/10/06 09:15:32;;;;;;;;;2.33;1.00;;;;;;;;5048228;27;45300;-79
2022/10/06 09:18:09;;;;;;;;;5.00;3.00;;;;;;;;5060164;28;45362;-78
2022/10/06 09:20:38;;;;;;;;;4.67;3.33;;;;;;;;5049925;28;45343;-77
2022/10/06 09:23:05;;;;;;;;;6.00;3.00;;;;;;;;5060478;28;45187;-78
2022/10/06 09:25:31;;;;;;;;;3.33;2.33;;;;;;;;5058799;28;45297;-78
2022/10/06 09:27:57;;;;;;;;;3.67;1.67;;;;;;;;5054494;28;45511;-77
2022/10/06 09:30:23;;;;;;;;;4.33;2.00;;;;;;;;5054238;28;46704;-78
2022/10/06 09:32:58;;;;;;;;;2.00;2.00;;;;;;;;5053386;28;45331;-77
2022/10/06 09:35:24;;;;;;;;;4.67;2.33;;;;;;;;5057283;28;45431;-77
2022/10/06 09:37:53;;;;;;;;;7.00;3.00;;;;;;;;5057176;28;45386;-78
2022/10/06 09:40:36;;;;;;;;;5.00;2.00;;;;;;;;5056985;28;45417;-77
2022/10/06 09:43:15;;;;;;;;;6.00;2.33;;;;;;;;5050937;28;45416;-77
2022/10/06 09:45:41;;;;;;;;;3.00;1.67;;;;;;;;5052688;28;45635;-77
2022/10/06 09:48:23;;;;;;;;;6.33;3.00;;;;;;;;5050891;28;45556;-78
2022/10/06 09:51:07;;;;;;;;;5.33;2.00;;;;;;;;5055235;28;45401;-77
2022/10/06 09:53:32;;;;;;;;;5.67;3.00;;;;;;;;5050221;28;45283;-78
2022/10/06 09:56:03;;;;;;;;;4.33;3.33;;;;;;;;5058362;28;45313;-77
2022/10/06 09:58:38;;;;;;;;;2.67;2.67;;;;;;;;5052935;28;45345;-78
2022/10/06 10:01:05;;;;;;;;;2.67;1.33;;;;;;;;5057852;28;46915;-78
2022/10/06 10:03:42;;;;;;;;;2.33;2.33;;;;;;;;5056919;28;45254;-78
2022/10/06 10:06:08;;;;;;;;;2.67;0.67;;;;;;;;5059718;28;45201;-77
2022/10/06 10:08:33;;;;;;;;;2.67;1.67;;;;;;;;5054689;28;45331;-78
2022/10/06 10:13:51;;;;;;;;;6.00;2.67;;;;;;;;5054033;28;45224;-78
2022/10/06 10:16:18;;;;;;;;;1.00;1.00;;;;;;;;5051217;28;45415;-80
2022/10/06 10:18:45;;;;;;;;;1.67;1.67;;;;;;;;5088730;27;45892;-78
2022/10/06 10:21:22;;;;;;;;;2.00;1.00;;;;;;;;5047997;28;46215;-78
2022/10/06 10:23:55;;;;;;;;;3.67;1.33;;;;;;;;5059717;28;45313;-79
2022/10/06 10:26:26;;;;;;;;;4.75;1.50;;;;;;;;5057115;28;45359;-79
2022/10/06 10:29:15;;;;;;;;;3.00;3.00;;;;;;;;5051843;28;45560;-78
2022/10/06 10:31:49;;;;;;;;;2.33;1.67;;;;;;;;5058977;28;46454;-79
2022/10/06 10:34:29;;;;;;;;;4.00;0.50;;;;;;;;5052246;28;45371;-78
2022/10/06 10:37:07;;;;;;;;;4.50;0.75;;;;;;;;5056676;28;45626;-78
2022/10/06 10:39:35;;;;;;;;;2.75;0.75;;;;;;;;5056490;28;45189;-78
2022/10/06 10:42:03;;;;;;;;;0.75;0.75;;;;;;;;5058454;28;45607;-79
2022/10/06 10:44:37;;;;;;;;;2.00;0.00;;;;;;;;5050233;28;45310;-79
2022/10/06 10:47:24;;;;;;;;;2.75;1.25;;;;;;;;5052112;28;45501;-79
2022/10/06 10:49:52;;;;;;;;;1.50;0.75;;;;;;;;5039810;28;45535;-78
2022/10/06 10:52:21;;;;;;;;;4.00;1.75;;;;;;;;5054215;28;45483;-79
2022/10/06 10:54:52;;;;;;;;;0.25;0.25;;;;;;;;5052523;28;45359;-79
2022/10/06 10:57:19;;;;;;;;;1.00;0.00;;;;;;;;5053425;28;45416;-79
2022/10/06 10:59:54;;;;;;;;;1.50;0.75;;;;;;;;5055520;28;45240;-79
2022/10/06 11:02:20;;;;;;;;;2.00;1.00;;;;;;;;5055777;28;45194;-79
2022/10/06 11:04:48;;;;;;;;;1.00;1.00;;;;;;;;5057405;28;45235;-80
2022/10/06 11:07:25;;;;;;;;;1.25;1.25;;;;;;;;5090972;27;45276;-80
2022/10/06 11:10:09;;;;;;;;;3.00;1.00;;;;;;;;5057245;28;45998;-80
2022/10/06 11:12:35;;;;;;;;;0.75;0.75;;;;;;;;5056061;28;45397;-80
2022/10/06 11:15:00;;;;;;;;;3.75;1.00;;;;;;;;5058792;28;45485;-80
2022/10/06 11:17:43;;;;;;;;;1.00;1.00;;;;;;;;5055643;28;45263;-80
2022/10/06 11:20:08;;;;;;;;;1.00;1.00;;;;;;;;5050055;27;45517;-80
2022/10/06 11:22:47;;;;;;;;;1.75;0.00;;;;;;;;5070804;28;46095;-80
2022/10/06 11:25:33;;;;;;;;;1.50;1.00;;;;;;;;5051043;28;45383;-80
2022/10/06 11:28:16;;;;;;;;;3.00;1.00;;;;;;;;5052829;28;45279;-81
2022/10/06 11:30:56;;;;;;;;;4.50;1.50;;;;;;;;5050530;28;45268;-81
2022/10/06 11:33:28;;;;;;;;;2.00;0.00;;;;;;;;5047523;28;45422;-79
2022/10/06 11:35:54;;;;;;;;;1.00;1.00;;;;;;;;5052873;28;45229;-80
2022/10/06 11:38:26;;;;;;;;;0.00;0.00;;;;;;;;5057094;28;45287;-80
2022/10/06 11:41:07;;;;;;;;;1.50;0.00;;;;;;;;5057895;28;45513;-80
2022/10/06 11:43:59;;;;;;;;;1.00;1.00;;;;;;;;5055068;28;46159;-80
2022/10/06 11:46:31;;;;;;;;;2.20;1.00;;;;;;;;5082029;27;45440;-77
2022/10/06 11:49:15;;;;;;;;;4.00;1.00;;;;;;;;5049091;28;45225;-79
2022/10/06 11:51:40;;;;;;;;;0.00;0.00;;;;;;;;5053967;28;48276;-79
2022/10/06 11:54:25;;;;;;;;;4.25;1.25;;;;;;;;5050269;28;45440;-79
2022/10/06 11:56:50;;;;;;;;;1.00;0.00;;;;;;;;5050172;28;45401;-79
2022/10/06 11:59:24;;;;;;;;;1.00;0.25;;;;;;;;5057509;28;45320;-79
2022/10/06 12:01:50;;;;;;;;;2.00;1.00;;;;;;;;5055349;28;45332;-80
2022/10/06 12:04:15;;;;;;;;;3.00;0.00;;;;;;;;5058244;28;46219;-79
2022/10/06 12:06:40;;;;;;;;;2.50;0.50;;;;;;;;5057899;28;45478;-79
2022/10/06 12:09:29;;;;;;;;;1.00;1.00;;;;;;;;5055212;28;45361;-77
2022/10/06 12:11:56;;;;;;;;;0.25;0.25;;;;;;;;5058080;28;45382;-76
2022/10/06 12:14:29;;;;;;;;;4.00;1.60;;;;;;;;5056185;28;45313;-77
2022/10/06 12:16:58;;;;;;;;;1.60;1.00;;;;;;;;5055931;28;45229;-78
2022/10/06 12:19:27;;;;;;;;;0.80;0.80;;;;;;;;5050539;28;45419;-78
2022/10/06 12:22:06;;;;;;;;;3.00;0.75;;;;;;;;5057848;28;45483;-78
2022/10/06 12:24:36;;;;;;;;;2.20;1.40;;;;;;;;5053816;28;45465;-75
2022/10/06 12:27:14;;;;;;;;;2.00;0.00;;;;;;;;5060043;28;45451;-75
2022/10/06 12:29:48;;;;;;;;;0.00;0.00;;;;;;;;5061456;28;46242;-76
2022/10/06 12:32:37;;;;;;;;;0.00;0.00;;;;;;;;5060665;28;45308;-76
2022/10/06 12:35:23;;;;;;;;;1.25;0.00;;;;;;;;5060315;28;45363;-76
2022/10/06 12:37:51;;;;;;;;;1.40;0.00;;;;;;;;5076455;27;45392;-76
2022/10/06 12:40:36;;;;;;;;;1.00;1.00;;;;;;;;5060898;28;45179;-77
2022/10/06 12:43:13;;;;;;;;;1.75;0.00;;;;;;;;5074795;28;45864;-77
2022/10/06 12:45:41;;;;;;;;;7.00;4.25;;;;;;;;5069921;28;46890;-77
2022/10/06 12:48:12;;;;;;;;;3.00;2.75;;;;;;;;5060802;28;45451;-76
2022/10/06 12:50:41;;;;;;;;;2.00;0.50;;;;;;;;5058047;28;45280;-77
2022/10/06 12:53:12;;;;;;;;;1.00;0.50;;;;;;;;5057544;28;46292;-77
2022/10/06 12:55:38;;;;;;;;;1.00;1.00;;;;;;;;5055217;28;45495;-76
2022/10/06 12:58:03;;;;;;;;;3.25;0.75;;;;;;;;5058659;28;45406;-77
2022/10/06 13:00:34;;;;;;;;;0.00;0.00;;;;;;;;5058341;28;45279;-77
2022/10/06 13:03:01;;;;;;;;;4.00;1.00;;;;;;;;5059794;28;46818;-76
2022/10/06 13:05:26;;;;;;;;;1.00;1.00;;;;;;;;5058255;28;45230;-77
2022/10/06 13:07:59;;;;;;;;;2.00;2.00;;;;;;;;5061516;28;45272;-76
2022/10/06 13:10:25;;;;;;;;;0.00;0.00;;;;;;;;5047876;28;45316;-76
2022/10/06 13:12:51;;;;;;;;;3.25;0.00;;;;;;;;5060130;28;45675;-76
2022/10/06 13:15:16;;;;;;;;;2.00;0.50;;;;;;;;5049728;28;46027;-76
2022/10/06 13:17:43;;;;;;;;;2.25;1.25;;;;;;;;5071604;28;45273;-76
2022/10/06 13:20:19;;;;;;;;;2.25;1.00;;;;;;;;5052421;28;45291;-76
2022/10/06 13:22:44;;;;;;;;;3.00;0.50;;;;;;;;5054485;28;45233;-76
2022/10/06 13:25:15;;;;;;;;;1.00;1.00;;;;;;;;5058277;28;45229;-77
2022/10/06 13:27:47;;;;;;;;;4.25;1.25;;;;;;;;5059942;28;45371;-77
2022/10/06 13:30:19;;;;;;;;;5.00;1.00;;;;;;;;5059966;28;45449;-77
2022/10/06 13:32:44;;;;;;;;;1.50;0.00;;;;;;;;5073328;28;45517;-77
2022/10/06 13:35:11;;;;;;;;;1.00;0.50;;;;;;;;5059631;28;46672;-77
2022/10/06 13:37:36;;;;;;;;;0.75;0.00;;;;;;;;5059746;28;45391;-77
2022/10/06 13:40:12;;;;;;;;;2.75;1.75;;;;;;;;5059963;28;45392;-78
2022/10/06 13:42:38;;;;;;;;;3.75;2.25;;;;;;;;5059635;28;45489;-78
2022/10/06 13:45:04;;;;;;;;;2.50;0.25;;;;;;;;5059469;28;45890;-77
2022/10/06 13:47:30;;;;;;;;;0.00;0.00;;;;;;;;5059912;28;45476;-75
2022/10/06 13:49:59;;;;;;;;;2.50;0.25;;;;;;;;5059529;28;45334;-78
2022/10/06 13:52:31;;;;;;;;;1.00;1.00;;;;;;;;5059494;28;45493;-76
2022/10/06 13:54:59;;;;;;;;;3.00;0.25;;;;;;;;5059092;28;46052;-76
2022/10/06 13:57:44;;;;;;;;;2.25;1.25;;;;;;;;5059020;28;45252;-78
2022/10/06 14:00:23;;;;;;;;;0.75;0.75;;;;;;;;5059517;28;45286;-77
2022/10/06 14:02:50;;;;;;;;;1.00;0.00;;;;;;;;5059881;28;45436;-78
2022/10/06 14:05:22;;;;;;;;;1.75;1.00;;;;;;;;5057892;28;46922;-78
2022/10/06 14:07:48;;;;;;;;;2.25;0.75;;;;;;;;5058174;28;45468;-77
2022/10/06 14:10:34;;;;;;;;;0.75;0.25;;;;;;;;5059311;28;45467;-78
2022/10/06 14:13:00;;;;;;;;;1.75;0.75;;;;;;;;5044346;28;45459;-78
2022/10/06 14:15:27;;;;;;;;;21.67;17.33;;;;;;;;5057765;28;47238;-77
2022/10/06 14:17:56;;;;;;;;;45.00;37.67;;;;;;;;5057884;28;45299;-77
2022/10/06 14:20:37;;;;;;;;;1.00;0.75;;;;;;;;5045667;28;45390;-78
2022/10/06 14:23:22;;;;;;;;;2.00;1.00;;;;;;;;5055292;28;45503;-76
2022/10/06 14:25:48;;;;;;;;;1.50;0.00;;;;;;;;5049921;28;46341;-76
2022/10/06 14:28:13;;;;;;;;;0.00;0.00;;;;;;;;5056262;28;45308;-76
2022/10/06 14:30:39;;;;;;;;;0.25;0.25;;;;;;;;5050723;28;45627;-76
2022/10/06 14:33:04;;;;;;;;;3.00;0.00;;;;;;;;5056920;28;45283;-77
2022/10/06 14:35:29;;;;;;;;;2.25;1.25;;;;;;;;5058051;28;45421;-77
2022/10/06 14:37:54;;;;;;;;;2.00;0.00;;;;;;;;5055656;28;45300;-77
2022/10/06 14:40:20;;;;;;;;;0.00;0.00;;;;;;;;5044904;28;45480;-77
2022/10/06 14:42:45;;;;;;;;;2.25;1.00;;;;;;;;5048765;28;45439;-77
2022/10/06 14:45:12;;;;;;;;;0.00;0.00;;;;;;;;5057799;28;45564;-76
2022/10/06 14:47:37;;;;;;;;;2.50;0.00;;;;;;;;5051228;28;45356;-78
2022/10/06 14:50:03;;;;;;;;;3.75;0.25;;;;;;;;5046748;28;45498;-75
2022/10/06 14:52:28;;;;;;;;;0.50;0.50;;;;;;;;5052678;27;47055;-77
2022/10/06 14:54:53;;;;;;;;;1.75;0.25;;;;;;;;5048912;28;45472;-79
2022/10/06 14:57:19;;;;;;;;;2.75;0.00;;;;;;;;5053381;28;45474;-77
2022/10/06 14:59:44;;;;;;;;;1.50;1.00;;;;;;;;5053534;28;45367;-76
2022/10/06 15:02:10;;;;;;;;;2.75;0.00;;;;;;;;5054528;28;45292;-77
2022/10/06 15:04:35;;;;;;;;;1.75;0.25;;;;;;;;5056639;28;46369;-77
2022/10/06 15:09:44;;;;;;;;;0.25;0.00;;;;;;;;5058789;28;45387;-78